PSCRJ SBPC-SBVG
Flight info
| Callsign | PSCRJ |
|---|---|
| Flight time | 0h 27m |
| Altitude | 5500 |
| Route | DCT 2142S04614W 2141S04555W DCT 2136S04534W DCT |
| Aircraft | S76/L-SDFGR/S |
Departure
| Time | 2026-05-08 14:50 |
|---|---|
| Airport | Poços de Caldas - Embaixador Walther Moreira Salles Airport (SBPC) |
Arrival
| Time | 2026-05-08 15:17 |
|---|---|
| Airport | Major Brigadeiro Trompowsky Airport (SBVG) |
| Time | Latitude | Longitude | Altitude | Speed | Heading |
|---|---|---|---|---|---|
| 2026-05-08 14:45 | -21.83817 | -46.56398 | 4139 ft | 0 kts | 250° |
| 2026-05-08 14:47 | -21.83819 | -46.56404 | 4139 ft | 4 kts | 250° |
| 2026-05-08 14:47 | -21.83851 | -46.56432 | 4139 ft | 0 kts | 169° |
| 2026-05-08 14:47 | -21.83872 | -46.56427 | 4139 ft | 7 kts | 168° |
| 2026-05-08 14:47 | -21.83909 | -46.56419 | 4151 ft | 5 kts | 168° |
| 2026-05-08 14:48 | -21.83977 | -46.56393 | 4147 ft | 8 kts | 99° |
| 2026-05-08 14:48 | -21.83994 | -46.56410 | 4163 ft | 2 kts | 71° |
| 2026-05-08 14:48 | -21.83982 | -46.56380 | 4215 ft | 6 kts | 67° |
| 2026-05-08 14:48 | -21.83984 | -46.56373 | 4210 ft | 2 kts | 66° |
| 2026-05-08 14:49 | -21.83983 | -46.56371 | 4211 ft | 1 kts | 64° |
| 2026-05-08 14:49 | -21.83998 | -46.56367 | 4211 ft | 1 kts | 63° |
| 2026-05-08 14:49 | -21.83990 | -46.56366 | 4211 ft | 2 kts | 60° |
| 2026-05-08 14:49 | -21.83997 | -46.56368 | 4211 ft | 2 kts | 59° |
| 2026-05-08 14:50 | -21.83983 | -46.56338 | 4476 ft | 21 kts | 65° |
| 2026-05-08 14:50 | -21.83889 | -46.56214 | 4665 ft | 63 kts | 53° |
| 2026-05-08 14:50 | -21.83838 | -46.56152 | 4707 ft | 77 kts | 50° |
| 2026-05-08 14:50 | -21.83385 | -46.55452 | 4809 ft | 141 kts | 59° |
| 2026-05-08 14:51 | -21.82916 | -46.54459 | 4728 ft | 154 kts | 62° |
| 2026-05-08 14:51 | -21.82419 | -46.53433 | 4621 ft | 155 kts | 61° |
| 2026-05-08 14:51 | -21.81927 | -46.52405 | 4540 ft | 150 kts | 62° |
| 2026-05-08 14:51 | -21.81471 | -46.51435 | 4820 ft | 142 kts | 63° |
| 2026-05-08 14:52 | -21.81075 | -46.50473 | 5124 ft | 141 kts | 66° |
| 2026-05-08 14:52 | -21.80299 | -46.48519 | 5588 ft | 150 kts | 65° |
| 2026-05-08 14:52 | -21.79885 | -46.47478 | 5537 ft | 153 kts | 65° |
| 2026-05-08 14:53 | -21.79470 | -46.46432 | 5513 ft | 152 kts | 65° |
| 2026-05-08 14:53 | -21.79055 | -46.45387 | 5504 ft | 152 kts | 65° |
| 2026-05-08 14:53 | -21.78639 | -46.44340 | 5501 ft | 152 kts | 65° |
| 2026-05-08 14:53 | -21.78225 | -46.43299 | 5500 ft | 152 kts | 65° |
| 2026-05-08 14:54 | -21.77811 | -46.42256 | 5499 ft | 152 kts | 65° |
| 2026-05-08 14:54 | -21.77396 | -46.41211 | 5499 ft | 152 kts | 65° |
| 2026-05-08 14:54 | -21.76983 | -46.40174 | 5500 ft | 152 kts | 65° |
| 2026-05-08 14:54 | -21.76568 | -46.39129 | 5499 ft | 152 kts | 65° |
| 2026-05-08 14:55 | -21.76153 | -46.38086 | 5501 ft | 152 kts | 65° |
| 2026-05-08 14:55 | -21.75737 | -46.37040 | 5500 ft | 152 kts | 65° |
| 2026-05-08 14:55 | -21.75322 | -46.35997 | 5500 ft | 152 kts | 65° |
| 2026-05-08 14:55 | -21.74908 | -46.34955 | 5501 ft | 152 kts | 65° |
| 2026-05-08 14:56 | -21.74493 | -46.33912 | 5499 ft | 152 kts | 65° |
| 2026-05-08 14:56 | -21.74077 | -46.32869 | 5500 ft | 152 kts | 65° |
| 2026-05-08 14:56 | -21.73661 | -46.31824 | 5500 ft | 152 kts | 65° |
| 2026-05-08 14:56 | -21.73247 | -46.30785 | 5500 ft | 152 kts | 65° |
| 2026-05-08 14:57 | -21.72831 | -46.29740 | 5501 ft | 152 kts | 65° |
| 2026-05-08 14:57 | -21.72415 | -46.28695 | 5499 ft | 152 kts | 65° |
| 2026-05-08 14:57 | -21.71999 | -46.27652 | 5500 ft | 152 kts | 65° |
| 2026-05-08 14:57 | -21.71583 | -46.26608 | 5501 ft | 152 kts | 65° |
| 2026-05-08 14:58 | -21.71167 | -46.25566 | 5499 ft | 152 kts | 65° |
| 2026-05-08 14:58 | -21.70752 | -46.24526 | 5501 ft | 152 kts | 65° |
| 2026-05-08 14:58 | -21.70328 | -46.23482 | 5500 ft | 152 kts | 64° |
| 2026-05-08 14:58 | -21.69883 | -46.22454 | 5499 ft | 152 kts | 64° |
| 2026-05-08 14:59 | -21.69598 | -46.21371 | 5501 ft | 150 kts | 81° |
| 2026-05-08 14:59 | -21.69388 | -46.19113 | 5500 ft | 152 kts | 83° |
| 2026-05-08 14:59 | -21.69292 | -46.17982 | 5500 ft | 152 kts | 84° |
| 2026-05-08 15:00 | -21.69196 | -46.16857 | 5501 ft | 152 kts | 84° |
| 2026-05-08 15:00 | -21.69100 | -46.15721 | 5500 ft | 152 kts | 84° |
| 2026-05-08 15:00 | -21.69004 | -46.14588 | 5500 ft | 152 kts | 84° |
| 2026-05-08 15:00 | -21.68909 | -46.13460 | 5501 ft | 152 kts | 84° |
| 2026-05-08 15:01 | -21.68813 | -46.12329 | 5499 ft | 152 kts | 84° |
| 2026-05-08 15:01 | -21.68717 | -46.11192 | 5500 ft | 152 kts | 84° |
| 2026-05-08 15:01 | -21.68630 | -46.10063 | 5500 ft | 152 kts | 84° |
| 2026-05-08 15:01 | -21.68536 | -46.08935 | 5500 ft | 152 kts | 83° |
| 2026-05-08 15:02 | -21.68439 | -46.07800 | 5500 ft | 152 kts | 84° |
| 2026-05-08 15:02 | -21.68343 | -46.06667 | 5501 ft | 152 kts | 83° |
| 2026-05-08 15:02 | -21.68246 | -46.05534 | 5499 ft | 152 kts | 83° |
| 2026-05-08 15:02 | -21.68150 | -46.04408 | 5501 ft | 152 kts | 83° |
| 2026-05-08 15:03 | -21.68053 | -46.03273 | 5500 ft | 152 kts | 83° |
| 2026-05-08 15:03 | -21.67956 | -46.02140 | 5500 ft | 152 kts | 83° |
| 2026-05-08 15:03 | -21.67859 | -46.01006 | 5501 ft | 152 kts | 83° |
| 2026-05-08 15:03 | -21.67762 | -45.99878 | 5499 ft | 152 kts | 83° |
| 2026-05-08 15:04 | -21.67665 | -45.98744 | 5500 ft | 152 kts | 83° |
| 2026-05-08 15:04 | -21.67568 | -45.97611 | 5500 ft | 152 kts | 83° |
| 2026-05-08 15:04 | -21.67471 | -45.96484 | 5499 ft | 152 kts | 83° |
| 2026-05-08 15:04 | -21.67373 | -45.95344 | 5501 ft | 152 kts | 83° |
| 2026-05-08 15:05 | -21.67276 | -45.94215 | 5500 ft | 152 kts | 83° |
| 2026-05-08 15:05 | -21.67179 | -45.93082 | 5500 ft | 152 kts | 83° |
| 2026-05-08 15:05 | -21.67081 | -45.91948 | 5501 ft | 152 kts | 83° |
| 2026-05-08 15:05 | -21.66984 | -45.90819 | 5499 ft | 152 kts | 83° |
| 2026-05-08 15:06 | -21.66886 | -45.89683 | 5501 ft | 152 kts | 83° |
| 2026-05-08 15:06 | -21.66788 | -45.88552 | 5500 ft | 152 kts | 83° |
| 2026-05-08 15:06 | -21.66690 | -45.87418 | 5499 ft | 152 kts | 83° |
| 2026-05-08 15:06 | -21.66581 | -45.86286 | 5501 ft | 152 kts | 81° |
| 2026-05-08 15:07 | -21.66378 | -45.85170 | 5501 ft | 152 kts | 76° |
| 2026-05-08 15:07 | -21.66155 | -45.84057 | 5500 ft | 152 kts | 77° |
| 2026-05-08 15:07 | -21.65931 | -45.82945 | 5500 ft | 152 kts | 76° |
| 2026-05-08 15:07 | -21.65704 | -45.81834 | 5499 ft | 152 kts | 76° |
| 2026-05-08 15:08 | -21.65478 | -45.80724 | 5501 ft | 152 kts | 76° |
| 2026-05-08 15:08 | -21.65327 | -45.79983 | 5500 ft | 152 kts | 76° |
| 2026-05-08 15:08 | -21.65024 | -45.78498 | 5499 ft | 152 kts | 76° |
| 2026-05-08 15:08 | -21.64798 | -45.77390 | 5501 ft | 152 kts | 76° |
| 2026-05-08 15:09 | -21.64571 | -45.76277 | 5499 ft | 152 kts | 76° |
| 2026-05-08 15:09 | -21.64344 | -45.75168 | 5500 ft | 152 kts | 76° |
| 2026-05-08 15:09 | -21.64117 | -45.74054 | 5501 ft | 152 kts | 76° |
| 2026-05-08 15:09 | -21.63889 | -45.72942 | 5499 ft | 152 kts | 76° |
| 2026-05-08 15:10 | -21.63663 | -45.71833 | 5501 ft | 152 kts | 76° |
| 2026-05-08 15:10 | -21.63511 | -45.71088 | 5501 ft | 152 kts | 76° |
| 2026-05-08 15:10 | -21.63208 | -45.69607 | 5500 ft | 152 kts | 76° |
| 2026-05-08 15:10 | -21.63057 | -45.68870 | 5501 ft | 152 kts | 76° |
| 2026-05-08 15:11 | -21.62828 | -45.67754 | 5500 ft | 153 kts | 76° |
| 2026-05-08 15:11 | -21.62601 | -45.66644 | 5500 ft | 152 kts | 76° |
| 2026-05-08 15:11 | -21.62373 | -45.65530 | 5501 ft | 153 kts | 76° |
| 2026-05-08 15:11 | -21.62146 | -45.64420 | 5499 ft | 153 kts | 76° |
| 2026-05-08 15:12 | -21.61918 | -45.63308 | 5501 ft | 152 kts | 76° |
| 2026-05-08 15:12 | -21.61690 | -45.62197 | 5500 ft | 153 kts | 76° |
| 2026-05-08 15:12 | -21.61462 | -45.61086 | 5499 ft | 153 kts | 76° |
| 2026-05-08 15:12 | -21.61234 | -45.59974 | 5501 ft | 153 kts | 76° |
| 2026-05-08 15:13 | -21.61005 | -45.58858 | 5500 ft | 153 kts | 76° |
| 2026-05-08 15:13 | -21.60777 | -45.57747 | 5500 ft | 153 kts | 76° |
| 2026-05-08 15:13 | -21.60549 | -45.56635 | 5501 ft | 153 kts | 76° |
| 2026-05-08 15:13 | -21.60321 | -45.55523 | 5499 ft | 153 kts | 76° |
| 2026-05-08 15:14 | -21.60091 | -45.54409 | 5501 ft | 153 kts | 76° |
| 2026-05-08 15:14 | -21.59818 | -45.53307 | 5501 ft | 153 kts | 72° |
| 2026-05-08 15:14 | -21.59511 | -45.52225 | 5500 ft | 153 kts | 70° |
| 2026-05-08 15:14 | -21.59135 | -45.51153 | 5500 ft | 153 kts | 67° |
| 2026-05-08 15:15 | -21.58749 | -45.50091 | 5500 ft | 153 kts | 68° |
| 2026-05-08 15:15 | -21.58365 | -45.49039 | 5500 ft | 153 kts | 67° |
| 2026-05-08 15:15 | -21.57974 | -45.47971 | 5499 ft | 153 kts | 67° |
| 2026-05-08 15:15 | -21.57586 | -45.46910 | 5501 ft | 153 kts | 67° |
| 2026-05-08 15:16 | -21.57198 | -45.45851 | 5501 ft | 153 kts | 67° |
| 2026-05-08 15:16 | -21.56835 | -45.44795 | 5525 ft | 138 kts | 77° |
| 2026-05-08 15:16 | -21.57179 | -45.44012 | 5209 ft | 122 kts | 148° |
| 2026-05-08 15:16 | -21.57999 | -45.44105 | 4249 ft | 126 kts | 214° |
| 2026-05-08 15:17 | -21.58430 | -45.44873 | 3704 ft | 119 kts | 252° |
| 2026-05-08 15:17 | -21.58526 | -45.45697 | 3405 ft | 100 kts | 261° |
| 2026-05-08 15:17 | -21.58608 | -45.46322 | 3263 ft | 68 kts | 265° |
| 2026-05-08 15:17 | -21.58603 | -45.46714 | 3231 ft | 40 kts | 297° |
| 2026-05-08 15:18 | -21.58546 | -45.46944 | 3218 ft | 24 kts | 294° |
| 2026-05-08 15:18 | -21.58526 | -45.47065 | 3143 ft | 14 kts | 248° |
| 2026-05-08 15:18 | -21.58518 | -45.47123 | 3058 ft | 9 kts | 278° |
| 2026-05-08 15:18 | -21.58507 | -45.47149 | 3053 ft | 6 kts | 283° |
| 2026-05-08 15:19 | -21.58496 | -45.47186 | 3034 ft | 1 kts | 283° |
| 2026-05-08 15:19 | -21.58496 | -45.47185 | 3032 ft | 0 kts | 284° |